sensor_id;sensor_type;location;lat;lon;timestamp;P1;durP1;ratioP1;P2;durP2;ratioP2
26325;SDS011;14032;52.510;7.342;2023-06-10T00:02:15;9.63;;;4.60;;
26325;SDS011;14032;52.510;7.342;2023-06-10T00:04:42;12.18;;;5.25;;
26325;SDS011;14032;52.510;7.342;2023-06-10T00:07:07;11.38;;;5.13;;
26325;SDS011;14032;52.510;7.342;2023-06-10T00:09:35;9.23;;;4.93;;
26325;SDS011;14032;52.510;7.342;2023-06-10T00:12:02;7.55;;;4.78;;
26325;SDS011;14032;52.510;7.342;2023-06-10T00:14:32;10.02;;;4.65;;
26325;SDS011;14032;52.510;7.342;2023-06-10T00:16:58;9.40;;;4.50;;
26325;SDS011;14032;52.510;7.342;2023-06-10T00:19:24;11.32;;;4.85;;
26325;SDS011;14032;52.510;7.342;2023-06-10T00:21:51;9.90;;;4.65;;
26325;SDS011;14032;52.510;7.342;2023-06-10T00:24:17;7.80;;;4.88;;
26325;SDS011;14032;52.510;7.342;2023-06-10T00:26:43;15.38;;;5.28;;
26325;SDS011;14032;52.510;7.342;2023-06-10T00:29:09;11.45;;;4.70;;
26325;SDS011;14032;52.510;7.342;2023-06-10T00:31:36;12.00;;;5.15;;
26325;SDS011;14032;52.510;7.342;2023-06-10T00:34:02;9.00;;;4.80;;
26325;SDS011;14032;52.510;7.342;2023-06-10T00:36:29;7.82;;;5.15;;
26325;SDS011;14032;52.510;7.342;2023-06-10T00:38:55;9.27;;;4.50;;
26325;SDS011;14032;52.510;7.342;2023-06-10T00:41:20;9.73;;;5.00;;
26325;SDS011;14032;52.510;7.342;2023-06-10T00:43:46;13.13;;;5.22;;
26325;SDS011;14032;52.510;7.342;2023-06-10T00:46:12;8.15;;;4.78;;
26325;SDS011;14032;52.510;7.342;2023-06-10T00:48:39;7.70;;;5.07;;
26325;SDS011;14032;52.510;7.342;2023-06-10T00:51:06;9.77;;;4.90;;
26325;SDS011;14032;52.510;7.342;2023-06-10T00:53:34;9.68;;;5.05;;
26325;SDS011;14032;52.510;7.342;2023-06-10T00:56:01;9.80;;;4.88;;
26325;SDS011;14032;52.510;7.342;2023-06-10T00:58:27;12.35;;;5.28;;
26325;SDS011;14032;52.510;7.342;2023-06-10T01:00:53;13.20;;;5.93;;
26325;SDS011;14032;52.510;7.342;2023-06-10T01:03:18;8.73;;;5.22;;
26325;SDS011;14032;52.510;7.342;2023-06-10T01:05:44;7.95;;;5.22;;
26325;SDS011;14032;52.510;7.342;2023-06-10T01:08:27;8.45;;;5.18;;
26325;SDS011;14032;52.510;7.342;2023-06-10T01:10:59;10.32;;;4.97;;
26325;SDS011;14032;52.510;7.342;2023-06-10T01:13:27;10.93;;;5.47;;
26325;SDS011;14032;52.510;7.342;2023-06-10T01:15:54;11.90;;;5.35;;
26325;SDS011;14032;52.510;7.342;2023-06-10T01:18:21;10.18;;;5.32;;
26325;SDS011;14032;52.510;7.342;2023-06-10T01:20:47;10.73;;;5.85;;
26325;SDS011;14032;52.510;7.342;2023-06-10T01:23:13;10.32;;;5.65;;
26325;SDS011;14032;52.510;7.342;2023-06-10T01:25:52;16.25;;;5.28;;
26325;SDS011;14032;52.510;7.342;2023-06-10T01:28:41;10.18;;;5.47;;
26325;SDS011;14032;52.510;7.342;2023-06-10T01:34:07;9.55;;;5.30;;
26325;SDS011;14032;52.510;7.342;2023-06-10T01:36:35;12.45;;;5.80;;
26325;SDS011;14032;52.510;7.342;2023-06-10T01:39:02;9.15;;;5.38;;
26325;SDS011;14032;52.510;7.342;2023-06-10T01:41:29;12.82;;;5.10;;
26325;SDS011;14032;52.510;7.342;2023-06-10T01:43:55;11.18;;;5.20;;
26325;SDS011;14032;52.510;7.342;2023-06-10T01:46:21;10.60;;;5.30;;
26325;SDS011;14032;52.510;7.342;2023-06-10T01:48:47;9.57;;;5.18;;
26325;SDS011;14032;52.510;7.342;2023-06-10T01:51:13;11.88;;;6.00;;
26325;SDS011;14032;52.510;7.342;2023-06-10T01:53:38;10.20;;;5.57;;
26325;SDS011;14032;52.510;7.342;2023-06-10T01:56:04;11.95;;;5.78;;
26325;SDS011;14032;52.510;7.342;2023-06-10T01:58:30;14.20;;;6.20;;
26325;SDS011;14032;52.510;7.342;2023-06-10T02:00:55;11.63;;;5.93;;
26325;SDS011;14032;52.510;7.342;2023-06-10T02:03:21;11.73;;;5.90;;
26325;SDS011;14032;52.510;7.342;2023-06-10T02:05:47;10.32;;;5.30;;
26325;SDS011;14032;52.510;7.342;2023-06-10T02:08:12;9.23;;;5.50;;
26325;SDS011;14032;52.510;7.342;2023-06-10T02:10:38;16.30;;;5.95;;
26325;SDS011;14032;52.510;7.342;2023-06-10T02:13:03;11.20;;;6.20;;
26325;SDS011;14032;52.510;7.342;2023-06-10T02:15:29;9.57;;;5.55;;
26325;SDS011;14032;52.510;7.342;2023-06-10T02:17:55;12.93;;;6.35;;
26325;SDS011;14032;52.510;7.342;2023-06-10T02:20:21;13.65;;;5.95;;
26325;SDS011;14032;52.510;7.342;2023-06-10T02:22:46;12.30;;;6.13;;
26325;SDS011;14032;52.510;7.342;2023-06-10T02:25:12;12.32;;;5.55;;
26325;SDS011;14032;52.510;7.342;2023-06-10T02:27:38;12.68;;;5.55;;
26325;SDS011;14032;52.510;7.342;2023-06-10T02:30:03;12.50;;;5.90;;
26325;SDS011;14032;52.510;7.342;2023-06-10T02:32:30;8.82;;;5.40;;
26325;SDS011;14032;52.510;7.342;2023-06-10T02:34:55;11.35;;;5.90;;
26325;SDS011;14032;52.510;7.342;2023-06-10T02:37:21;12.65;;;5.50;;
26325;SDS011;14032;52.510;7.342;2023-06-10T02:39:46;16.02;;;6.50;;
26325;SDS011;14032;52.510;7.342;2023-06-10T02:42:12;10.20;;;5.50;;
26325;SDS011;14032;52.510;7.342;2023-06-10T02:44:38;13.80;;;6.05;;
26325;SDS011;14032;52.510;7.342;2023-06-10T02:47:03;13.13;;;6.50;;
26325;SDS011;14032;52.510;7.342;2023-06-10T02:49:29;11.10;;;5.72;;
26325;SDS011;14032;52.510;7.342;2023-06-10T02:51:55;11.93;;;6.10;;
26325;SDS011;14032;52.510;7.342;2023-06-10T02:54:22;13.00;;;6.28;;
26325;SDS011;14032;52.510;7.342;2023-06-10T02:56:48;16.63;;;5.70;;
26325;SDS011;14032;52.510;7.342;2023-06-10T02:59:14;13.07;;;6.13;;
26325;SDS011;14032;52.510;7.342;2023-06-10T03:01:40;12.95;;;6.28;;
26325;SDS011;14032;52.510;7.342;2023-06-10T03:04:06;12.27;;;6.72;;
26325;SDS011;14032;52.510;7.342;2023-06-10T03:06:32;13.45;;;5.78;;
26325;SDS011;14032;52.510;7.342;2023-06-10T03:08:59;11.63;;;6.30;;
26325;SDS011;14032;52.510;7.342;2023-06-10T03:11:25;11.48;;;6.13;;
26325;SDS011;14032;52.510;7.342;2023-06-10T03:13:51;15.73;;;6.13;;
26325;SDS011;14032;52.510;7.342;2023-06-10T03:16:18;12.98;;;6.03;;
26325;SDS011;14032;52.510;7.342;2023-06-10T03:18:44;10.95;;;6.32;;
26325;SDS011;14032;52.510;7.342;2023-06-10T03:21:10;10.27;;;5.60;;
26325;SDS011;14032;52.510;7.342;2023-06-10T03:23:36;13.65;;;6.53;;
26325;SDS011;14032;52.510;7.342;2023-06-10T03:26:02;13.35;;;6.03;;
26325;SDS011;14032;52.510;7.342;2023-06-10T03:28:29;11.93;;;6.47;;
26325;SDS011;14032;52.510;7.342;2023-06-10T03:30:55;14.60;;;6.05;;
26325;SDS011;14032;52.510;7.342;2023-06-10T03:33:21;12.57;;;5.80;;
26325;SDS011;14032;52.510;7.342;2023-06-10T03:35:47;13.65;;;7.57;;
26325;SDS011;14032;52.510;7.342;2023-06-10T03:38:13;13.25;;;5.97;;
26325;SDS011;14032;52.510;7.342;2023-06-10T03:40:38;11.25;;;6.10;;
26325;SDS011;14032;52.510;7.342;2023-06-10T03:43:04;11.50;;;6.13;;
26325;SDS011;14032;52.510;7.342;2023-06-10T03:45:30;10.27;;;5.80;;
26325;SDS011;14032;52.510;7.342;2023-06-10T03:47:57;14.27;;;5.63;;
26325;SDS011;14032;52.510;7.342;2023-06-10T03:50:23;13.35;;;6.50;;
26325;SDS011;14032;52.510;7.342;2023-06-10T03:52:49;14.48;;;6.47;;
26325;SDS011;14032;52.510;7.342;2023-06-10T03:55:15;9.48;;;6.10;;
26325;SDS011;14032;52.510;7.342;2023-06-10T03:57:41;13.60;;;6.50;;
26325;SDS011;14032;52.510;7.342;2023-06-10T04:00:07;12.70;;;6.43;;
26325;SDS011;14032;52.510;7.342;2023-06-10T04:02:37;11.18;;;6.20;;
26325;SDS011;14032;52.510;7.342;2023-06-10T04:05:10;8.55;;;5.53;;
26325;SDS011;14032;52.510;7.342;2023-06-10T04:07:37;12.02;;;6.80;;
26325;SDS011;14032;52.510;7.342;2023-06-10T04:10:05;13.20;;;5.65;;
26325;SDS011;14032;52.510;7.342;2023-06-10T04:12:32;14.43;;;6.35;;
26325;SDS011;14032;52.510;7.342;2023-06-10T04:14:57;12.05;;;6.10;;
26325;SDS011;14032;52.510;7.342;2023-06-10T04:17:23;11.48;;;5.70;;
26325;SDS011;14032;52.510;7.342;2023-06-10T04:19:49;10.82;;;6.25;;
26325;SDS011;14032;52.510;7.342;2023-06-10T04:22:15;12.27;;;6.30;;
26325;SDS011;14032;52.510;7.342;2023-06-10T04:24:41;11.98;;;5.60;;
26325;SDS011;14032;52.510;7.342;2023-06-10T04:27:07;14.25;;;6.35;;
26325;SDS011;14032;52.510;7.342;2023-06-10T04:29:33;14.18;;;5.93;;
26325;SDS011;14032;52.510;7.342;2023-06-10T04:31:59;16.10;;;6.78;;
26325;SDS011;14032;52.510;7.342;2023-06-10T04:34:26;15.23;;;6.95;;
26325;SDS011;14032;52.510;7.342;2023-06-10T04:36:52;13.38;;;6.32;;
26325;SDS011;14032;52.510;7.342;2023-06-10T04:39:18;14.13;;;5.80;;
26325;SDS011;14032;52.510;7.342;2023-06-10T04:41:44;15.13;;;6.22;;
26325;SDS011;14032;52.510;7.342;2023-06-10T04:44:11;9.00;;;5.43;;
26325;SDS011;14032;52.510;7.342;2023-06-10T04:46:36;11.23;;;6.10;;
26325;SDS011;14032;52.510;7.342;2023-06-10T04:49:08;14.23;;;5.85;;
26325;SDS011;14032;52.510;7.342;2023-06-10T04:51:34;13.02;;;6.00;;
26325;SDS011;14032;52.510;7.342;2023-06-10T04:53:59;10.13;;;5.85;;
26325;SDS011;14032;52.510;7.342;2023-06-10T04:56:28;16.38;;;6.32;;
26325;SDS011;14032;52.510;7.342;2023-06-10T04:58:55;11.32;;;5.63;;
26325;SDS011;14032;52.510;7.342;2023-06-10T05:01:22;15.98;;;6.50;;
26325;SDS011;14032;52.510;7.342;2023-06-10T05:03:47;14.02;;;5.82;;
26325;SDS011;14032;52.510;7.342;2023-06-10T05:06:13;12.13;;;5.68;;
26325;SDS011;14032;52.510;7.342;2023-06-10T05:08:38;15.50;;;6.07;;
26325;SDS011;14032;52.510;7.342;2023-06-10T05:11:04;9.82;;;5.15;;
26325;SDS011;14032;52.510;7.342;2023-06-10T05:13:31;12.15;;;5.43;;
26325;SDS011;14032;52.510;7.342;2023-06-10T05:15:57;10.02;;;5.35;;
26325;SDS011;14032;52.510;7.342;2023-06-10T05:18:23;12.15;;;6.03;;
26325;SDS011;14032;52.510;7.342;2023-06-10T05:20:49;15.23;;;5.70;;
26325;SDS011;14032;52.510;7.342;2023-06-10T05:23:14;9.55;;;5.72;;
26325;SDS011;14032;52.510;7.342;2023-06-10T05:25:40;10.80;;;5.15;;
26325;SDS011;14032;52.510;7.342;2023-06-10T05:28:06;13.30;;;6.25;;
26325;SDS011;14032;52.510;7.342;2023-06-10T05:30:35;14.93;;;5.60;;
26325;SDS011;14032;52.510;7.342;2023-06-10T05:33:01;10.77;;;5.55;;
26325;SDS011;14032;52.510;7.342;2023-06-10T05:35:26;10.45;;;5.72;;
26325;SDS011;14032;52.510;7.342;2023-06-10T05:37:52;14.50;;;5.72;;
26325;SDS011;14032;52.510;7.342;2023-06-10T05:40:17;11.32;;;5.50;;
26325;SDS011;14032;52.510;7.342;2023-06-10T05:42:43;13.73;;;6.45;;
26325;SDS011;14032;52.510;7.342;2023-06-10T05:45:09;11.18;;;5.30;;
26325;SDS011;14032;52.510;7.342;2023-06-10T05:47:35;8.57;;;5.40;;
26325;SDS011;14032;52.510;7.342;2023-06-10T05:50:00;11.98;;;5.53;;
26325;SDS011;14032;52.510;7.342;2023-06-10T05:52:26;13.68;;;5.57;;
26325;SDS011;14032;52.510;7.342;2023-06-10T05:54:51;11.95;;;5.22;;
26325;SDS011;14032;52.510;7.342;2023-06-10T05:57:17;13.82;;;5.65;;
26325;SDS011;14032;52.510;7.342;2023-06-10T05:59:42;11.77;;;5.20;;
26325;SDS011;14032;52.510;7.342;2023-06-10T06:02:11;9.85;;;5.07;;
26325;SDS011;14032;52.510;7.342;2023-06-10T06:04:40;11.00;;;5.65;;
26325;SDS011;14032;52.510;7.342;2023-06-10T06:07:08;9.95;;;5.10;;
26325;SDS011;14032;52.510;7.342;2023-06-10T06:09:37;10.35;;;5.03;;
26325;SDS011;14032;52.510;7.342;2023-06-10T06:12:02;12.55;;;4.93;;
26325;SDS011;14032;52.510;7.342;2023-06-10T06:14:30;10.38;;;4.75;;
26325;SDS011;14032;52.510;7.342;2023-06-10T06:16:57;13.52;;;5.10;;
26325;SDS011;14032;52.510;7.342;2023-06-10T06:19:22;10.27;;;4.88;;
26325;SDS011;14032;52.510;7.342;2023-06-10T06:21:48;8.63;;;4.50;;
26325;SDS011;14032;52.510;7.342;2023-06-10T06:24:14;11.43;;;4.65;;
26325;SDS011;14032;52.510;7.342;2023-06-10T06:26:42;16.52;;;5.25;;
26325;SDS011;14032;52.510;7.342;2023-06-10T06:29:07;10.30;;;5.20;;
26325;SDS011;14032;52.510;7.342;2023-06-10T06:31:33;11.38;;;5.70;;
26325;SDS011;14032;52.510;7.342;2023-06-10T06:33:58;9.35;;;4.72;;
26325;SDS011;14032;52.510;7.342;2023-06-10T06:36:24;10.40;;;5.05;;
26325;SDS011;14032;52.510;7.342;2023-06-10T06:38:50;9.73;;;5.18;;
26325;SDS011;14032;52.510;7.342;2023-06-10T06:41:15;14.90;;;5.00;;
26325;SDS011;14032;52.510;7.342;2023-06-10T06:43:41;11.52;;;5.22;;
26325;SDS011;14032;52.510;7.342;2023-06-10T06:46:08;9.60;;;4.85;;
26325;SDS011;14032;52.510;7.342;2023-06-10T06:48:33;8.43;;;4.47;;
26325;SDS011;14032;52.510;7.342;2023-06-10T06:50:59;10.02;;;4.95;;
26325;SDS011;14032;52.510;7.342;2023-06-10T06:53:25;9.95;;;4.60;;
26325;SDS011;14032;52.510;7.342;2023-06-10T06:55:51;9.20;;;4.57;;
26325;SDS011;14032;52.510;7.342;2023-06-10T06:58:17;13.63;;;4.30;;
26325;SDS011;14032;52.510;7.342;2023-06-10T07:00:42;13.45;;;5.18;;
26325;SDS011;14032;52.510;7.342;2023-06-10T07:03:08;15.23;;;4.90;;
26325;SDS011;14032;52.510;7.342;2023-06-10T07:05:33;8.75;;;4.47;;
26325;SDS011;14032;52.510;7.342;2023-06-10T07:07:59;9.18;;;4.93;;
26325;SDS011;14032;52.510;7.342;2023-06-10T07:10:25;12.13;;;5.60;;
26325;SDS011;14032;52.510;7.342;2023-06-10T07:12:51;12.38;;;4.65;;
26325;SDS011;14032;52.510;7.342;2023-06-10T07:15:17;8.90;;;4.13;;
26325;SDS011;14032;52.510;7.342;2023-06-10T07:17:43;8.68;;;4.68;;
26325;SDS011;14032;52.510;7.342;2023-06-10T07:20:09;13.82;;;4.82;;
26325;SDS011;14032;52.510;7.342;2023-06-10T07:22:35;11.07;;;4.53;;
26325;SDS011;14032;52.510;7.342;2023-06-10T07:25:01;11.57;;;4.35;;
26325;SDS011;14032;52.510;7.342;2023-06-10T07:27:27;9.43;;;4.47;;
26325;SDS011;14032;52.510;7.342;2023-06-10T07:29:54;10.43;;;4.43;;
26325;SDS011;14032;52.510;7.342;2023-06-10T07:32:19;9.32;;;4.65;;
26325;SDS011;14032;52.510;7.342;2023-06-10T07:34:47;14.85;;;4.32;;
26325;SDS011;14032;52.510;7.342;2023-06-10T07:37:12;12.45;;;4.50;;
26325;SDS011;14032;52.510;7.342;2023-06-10T07:39:38;9.07;;;3.90;;
26325;SDS011;14032;52.510;7.342;2023-06-10T07:42:05;11.88;;;4.95;;
26325;SDS011;14032;52.510;7.342;2023-06-10T07:44:31;9.48;;;4.72;;
26325;SDS011;14032;52.510;7.342;2023-06-10T07:46:57;10.50;;;4.60;;
26325;SDS011;14032;52.510;7.342;2023-06-10T07:49:23;7.68;;;4.10;;
26325;SDS011;14032;52.510;7.342;2023-06-10T07:51:49;15.13;;;4.45;;
26325;SDS011;14032;52.510;7.342;2023-06-10T07:54:15;10.10;;;4.70;;
26325;SDS011;14032;52.510;7.342;2023-06-10T07:56:41;16.00;;;4.60;;
26325;SDS011;14032;52.510;7.342;2023-06-10T07:59:06;14.48;;;4.22;;
26325;SDS011;14032;52.510;7.342;2023-06-10T08:01:32;10.13;;;4.38;;
26325;SDS011;14032;52.510;7.342;2023-06-10T08:03:58;8.52;;;4.32;;
26325;SDS011;14032;52.510;7.342;2023-06-10T08:06:23;7.90;;;4.18;;
26325;SDS011;14032;52.510;7.342;2023-06-10T08:08:49;11.82;;;3.78;;
26325;SDS011;14032;52.510;7.342;2023-06-10T08:11:14;10.30;;;4.10;;
26325;SDS011;14032;52.510;7.342;2023-06-10T08:13:40;8.40;;;3.97;;
26325;SDS011;14032;52.510;7.342;2023-06-10T08:16:06;7.10;;;3.78;;
26325;SDS011;14032;52.510;7.342;2023-06-10T08:18:32;7.80;;;4.47;;
26325;SDS011;14032;52.510;7.342;2023-06-10T08:20:58;7.20;;;3.90;;
26325;SDS011;14032;52.510;7.342;2023-06-10T08:23:24;8.75;;;4.15;;
26325;SDS011;14032;52.510;7.342;2023-06-10T08:25:49;8.63;;;4.15;;
26325;SDS011;14032;52.510;7.342;2023-06-10T08:28:16;8.40;;;4.00;;
26325;SDS011;14032;52.510;7.342;2023-06-10T08:30:41;10.60;;;3.90;;
26325;SDS011;14032;52.510;7.342;2023-06-10T08:33:07;6.40;;;3.47;;
26325;SDS011;14032;52.510;7.342;2023-06-10T08:35:32;9.70;;;4.10;;
26325;SDS011;14032;52.510;7.342;2023-06-10T08:37:58;7.82;;;3.67;;
26325;SDS011;14032;52.510;7.342;2023-06-10T08:40:23;10.60;;;4.15;;
26325;SDS011;14032;52.510;7.342;2023-06-10T08:42:53;10.55;;;4.03;;
26325;SDS011;14032;52.510;7.342;2023-06-10T08:45:29;9.32;;;4.13;;
26325;SDS011;14032;52.510;7.342;2023-06-10T08:48:00;10.88;;;4.03;;
26325;SDS011;14032;52.510;7.342;2023-06-10T08:50:34;10.85;;;3.65;;
26325;SDS011;14032;52.510;7.342;2023-06-10T08:53:01;6.80;;;4.10;;
26325;SDS011;14032;52.510;7.342;2023-06-10T08:57:57;8.60;;;4.07;;
26325;SDS011;14032;52.510;7.342;2023-06-10T09:00:26;7.72;;;3.95;;
26325;SDS011;14032;52.510;7.342;2023-06-10T09:02:53;6.40;;;3.38;;
26325;SDS011;14032;52.510;7.342;2023-06-10T09:05:23;6.82;;;3.85;;
26325;SDS011;14032;52.510;7.342;2023-06-10T09:07:50;12.25;;;3.67;;
26325;SDS011;14032;52.510;7.342;2023-06-10T09:10:17;8.82;;;3.53;;
26325;SDS011;14032;52.510;7.342;2023-06-10T09:12:43;9.23;;;4.22;;
26325;SDS011;14032;52.510;7.342;2023-06-10T09:15:09;7.75;;;3.55;;
26325;SDS011;14032;52.510;7.342;2023-06-10T09:17:36;9.60;;;3.85;;
26325;SDS011;14032;52.510;7.342;2023-06-10T09:20:03;10.10;;;4.10;;
26325;SDS011;14032;52.510;7.342;2023-06-10T09:22:29;7.03;;;3.53;;
26325;SDS011;14032;52.510;7.342;2023-06-10T09:25:05;7.32;;;3.50;;
26325;SDS011;14032;52.510;7.342;2023-06-10T09:27:33;6.70;;;3.45;;
26325;SDS011;14032;52.510;7.342;2023-06-10T09:30:23;5.45;;;3.47;;
26325;SDS011;14032;52.510;7.342;2023-06-10T09:35:17;7.28;;;3.47;;
26325;SDS011;14032;52.510;7.342;2023-06-10T09:37:43;10.90;;;3.50;;
26325;SDS011;14032;52.510;7.342;2023-06-10T09:40:09;7.55;;;3.22;;
26325;SDS011;14032;52.510;7.342;2023-06-10T09:42:36;8.70;;;3.65;;
26325;SDS011;14032;52.510;7.342;2023-06-10T09:45:03;7.25;;;3.40;;
26325;SDS011;14032;52.510;7.342;2023-06-10T09:47:31;5.70;;;3.45;;
26325;SDS011;14032;52.510;7.342;2023-06-10T09:49:56;7.22;;;3.50;;
26325;SDS011;14032;52.510;7.342;2023-06-10T09:52:25;9.05;;;3.40;;
26325;SDS011;14032;52.510;7.342;2023-06-10T09:54:53;7.38;;;3.80;;
26325;SDS011;14032;52.510;7.342;2023-06-10T09:57:20;11.27;;;4.38;;
26325;SDS011;14032;52.510;7.342;2023-06-10T09:59:47;8.93;;;2.80;;
26325;SDS011;14032;52.510;7.342;2023-06-10T10:02:17;5.95;;;3.33;;
26325;SDS011;14032;52.510;7.342;2023-06-10T10:04:46;9.65;;;3.60;;
26325;SDS011;14032;52.510;7.342;2023-06-10T10:07:12;8.27;;;3.53;;
26325;SDS011;14032;52.510;7.342;2023-06-10T10:09:38;5.20;;;2.60;;
26325;SDS011;14032;52.510;7.342;2023-06-10T10:12:11;9.23;;;3.55;;
26325;SDS011;14032;52.510;7.342;2023-06-10T10:14:43;7.85;;;3.22;;
26325;SDS011;14032;52.510;7.342;2023-06-10T10:17:11;9.32;;;3.65;;
26325;SDS011;14032;52.510;7.342;2023-06-10T10:19:48;7.50;;;3.15;;
26325;SDS011;14032;52.510;7.342;2023-06-10T10:22:19;5.07;;;3.08;;
26325;SDS011;14032;52.510;7.342;2023-06-10T10:24:59;6.70;;;3.20;;
26325;SDS011;14032;52.510;7.342;2023-06-10T10:27:28;7.80;;;3.75;;
26325;SDS011;14032;52.510;7.342;2023-06-10T10:29:58;6.35;;;3.38;;
26325;SDS011;14032;52.510;7.342;2023-06-10T10:35:26;5.25;;;3.20;;
26325;SDS011;14032;52.510;7.342;2023-06-10T10:37:53;10.20;;;4.13;;
26325;SDS011;14032;52.510;7.342;2023-06-10T10:40:23;9.40;;;3.10;;
26325;SDS011;14032;52.510;7.342;2023-06-10T10:42:49;7.75;;;3.42;;
26325;SDS011;14032;52.510;7.342;2023-06-10T10:45:15;6.85;;;3.00;;
26325;SDS011;14032;52.510;7.342;2023-06-10T10:47:42;9.45;;;3.00;;
26325;SDS011;14032;52.510;7.342;2023-06-10T10:50:16;6.40;;;3.40;;
26325;SDS011;14032;52.510;7.342;2023-06-10T10:52:51;6.45;;;3.17;;
26325;SDS011;14032;52.510;7.342;2023-06-10T10:55:20;6.55;;;3.50;;
26325;SDS011;14032;52.510;7.342;2023-06-10T10:57:57;5.75;;;3.17;;
26325;SDS011;14032;52.510;7.342;2023-06-10T11:00:30;6.60;;;3.25;;
26325;SDS011;14032;52.510;7.342;2023-06-10T11:02:58;9.15;;;2.80;;
26325;SDS011;14032;52.510;7.342;2023-06-10T11:05:41;4.57;;;3.10;;
26325;SDS011;14032;52.510;7.342;2023-06-10T11:08:09;6.25;;;2.72;;
26325;SDS011;14032;52.510;7.342;2023-06-10T11:10:37;6.18;;;3.22;;
26325;SDS011;14032;52.510;7.342;2023-06-10T11:13:07;6.90;;;3.05;;
26325;SDS011;14032;52.510;7.342;2023-06-10T11:15:33;7.50;;;3.50;;
26325;SDS011;14032;52.510;7.342;2023-06-10T11:18:07;7.30;;;3.90;;
26325;SDS011;14032;52.510;7.342;2023-06-10T11:20:43;5.38;;;2.85;;
26325;SDS011;14032;52.510;7.342;2023-06-10T11:23:09;4.72;;;2.80;;
26325;SDS011;14032;52.510;7.342;2023-06-10T11:25:38;7.82;;;2.80;;
26325;SDS011;14032;52.510;7.342;2023-06-10T11:28:12;5.05;;;3.13;;
26325;SDS011;14032;52.510;7.342;2023-06-10T11:30:43;5.50;;;2.92;;
26325;SDS011;14032;52.510;7.342;2023-06-10T11:33:09;8.93;;;3.08;;
26325;SDS011;14032;52.510;7.342;2023-06-10T11:35:39;4.68;;;2.85;;
26325;SDS011;14032;52.510;7.342;2023-06-10T11:38:05;7.47;;;2.88;;
26325;SDS011;14032;52.510;7.342;2023-06-10T11:40:30;4.70;;;3.08;;
26325;SDS011;14032;52.510;7.342;2023-06-10T11:42:57;5.45;;;3.00;;
26325;SDS011;14032;52.510;7.342;2023-06-10T11:45:23;5.97;;;3.10;;
26325;SDS011;14032;52.510;7.342;2023-06-10T11:47:55;5.15;;;2.97;;
26325;SDS011;14032;52.510;7.342;2023-06-10T11:52:53;5.25;;;3.00;;
26325;SDS011;14032;52.510;7.342;2023-06-10T11:55:20;6.20;;;3.17;;
26325;SDS011;14032;52.510;7.342;2023-06-10T11:57:46;5.13;;;3.00;;
26325;SDS011;14032;52.510;7.342;2023-06-10T12:00:12;4.30;;;3.30;;
26325;SDS011;14032;52.510;7.342;2023-06-10T12:02:38;4.55;;;3.00;;
26325;SDS011;14032;52.510;7.342;2023-06-10T12:05:13;4.60;;;2.95;;
26325;SDS011;14032;52.510;7.342;2023-06-10T12:07:39;4.97;;;2.88;;
26325;SDS011;14032;52.510;7.342;2023-06-10T12:10:05;7.82;;;3.38;;
26325;SDS011;14032;52.510;7.342;2023-06-10T12:12:31;4.97;;;2.80;;
26325;SDS011;14032;52.510;7.342;2023-06-10T12:15:01;9.68;;;3.15;;
26325;SDS011;14032;52.510;7.342;2023-06-10T12:19:57;6.55;;;3.22;;
26325;SDS011;14032;52.510;7.342;2023-06-10T12:22:23;7.32;;;3.40;;
26325;SDS011;14032;52.510;7.342;2023-06-10T12:25:02;4.72;;;2.97;;
26325;SDS011;14032;52.510;7.342;2023-06-10T12:27:30;8.25;;;3.92;;
26325;SDS011;14032;52.510;7.342;2023-06-10T12:29:57;9.50;;;4.57;;
26325;SDS011;14032;52.510;7.342;2023-06-10T12:35:08;7.75;;;3.25;;
26325;SDS011;14032;52.510;7.342;2023-06-10T12:37:37;5.93;;;2.90;;
26325;SDS011;14032;52.510;7.342;2023-06-10T12:40:03;6.97;;;2.92;;
26325;SDS011;14032;52.510;7.342;2023-06-10T12:42:31;5.45;;;3.33;;
26325;SDS011;14032;52.510;7.342;2023-06-10T12:45:00;5.68;;;3.05;;
26325;SDS011;14032;52.510;7.342;2023-06-10T12:47:44;5.00;;;3.30;;
26325;SDS011;14032;52.510;7.342;2023-06-10T12:50:09;4.82;;;2.90;;
26325;SDS011;14032;52.510;7.342;2023-06-10T12:52:37;5.57;;;3.08;;
26325;SDS011;14032;52.510;7.342;2023-06-10T12:55:03;7.72;;;3.30;;
26325;SDS011;14032;52.510;7.342;2023-06-10T12:57:29;7.80;;;3.75;;
26325;SDS011;14032;52.510;7.342;2023-06-10T12:59:56;5.82;;;3.15;;
26325;SDS011;14032;52.510;7.342;2023-06-10T13:02:28;5.28;;;3.25;;
26325;SDS011;14032;52.510;7.342;2023-06-10T13:04:54;6.93;;;3.17;;
26325;SDS011;14032;52.510;7.342;2023-06-10T13:07:23;6.18;;;3.33;;
26325;SDS011;14032;52.510;7.342;2023-06-10T13:09:49;7.15;;;3.08;;
26325;SDS011;14032;52.510;7.342;2023-06-10T13:12:15;6.30;;;3.28;;
26325;SDS011;14032;52.510;7.342;2023-06-10T13:14:42;8.57;;;3.40;;
26325;SDS011;14032;52.510;7.342;2023-06-10T13:17:08;6.57;;;3.72;;
26325;SDS011;14032;52.510;7.342;2023-06-10T13:19:33;4.65;;;2.90;;
26325;SDS011;14032;52.510;7.342;2023-06-10T13:21:59;5.03;;;2.90;;
26325;SDS011;14032;52.510;7.342;2023-06-10T13:24:25;6.15;;;3.22;;
26325;SDS011;14032;52.510;7.342;2023-06-10T13:26:51;4.18;;;3.00;;
26325;SDS011;14032;52.510;7.342;2023-06-10T13:29:21;5.15;;;2.83;;
26325;SDS011;14032;52.510;7.342;2023-06-10T13:31:47;6.40;;;3.30;;
26325;SDS011;14032;52.510;7.342;2023-06-10T13:34:12;6.75;;;2.88;;
26325;SDS011;14032;52.510;7.342;2023-06-10T13:36:38;4.18;;;2.78;;
26325;SDS011;14032;52.510;7.342;2023-06-10T13:39:04;5.15;;;3.15;;
26325;SDS011;14032;52.510;7.342;2023-06-10T13:41:29;5.75;;;2.95;;
26325;SDS011;14032;52.510;7.342;2023-06-10T13:43:55;5.45;;;3.13;;
26325;SDS011;14032;52.510;7.342;2023-06-10T13:46:20;6.85;;;3.25;;
26325;SDS011;14032;52.510;7.342;2023-06-10T13:48:47;5.50;;;3.10;;
26325;SDS011;14032;52.510;7.342;2023-06-10T13:51:12;6.25;;;2.95;;
26325;SDS011;14032;52.510;7.342;2023-06-10T13:53:38;5.65;;;2.90;;
26325;SDS011;14032;52.510;7.342;2023-06-10T13:56:04;7.68;;;3.15;;
26325;SDS011;14032;52.510;7.342;2023-06-10T13:58:30;9.60;;;3.33;;
26325;SDS011;14032;52.510;7.342;2023-06-10T14:00:56;4.78;;;3.13;;
26325;SDS011;14032;52.510;7.342;2023-06-10T14:03:23;4.45;;;3.00;;
26325;SDS011;14032;52.510;7.342;2023-06-10T14:05:49;6.13;;;3.60;;
26325;SDS011;14032;52.510;7.342;2023-06-10T14:08:14;4.45;;;3.00;;
26325;SDS011;14032;52.510;7.342;2023-06-10T14:10:40;5.07;;;3.00;;
26325;SDS011;14032;52.510;7.342;2023-06-10T14:13:05;4.63;;;2.88;;
26325;SDS011;14032;52.510;7.342;2023-06-10T14:15:31;7.18;;;2.78;;
26325;SDS011;14032;52.510;7.342;2023-06-10T14:17:57;5.57;;;3.13;;
26325;SDS011;14032;52.510;7.342;2023-06-10T14:20:23;4.43;;;2.60;;
26325;SDS011;14032;52.510;7.342;2023-06-10T14:22:50;6.43;;;3.20;;
26325;SDS011;14032;52.510;7.342;2023-06-10T14:25:16;5.13;;;3.20;;
26325;SDS011;14032;52.510;7.342;2023-06-10T14:27:42;5.15;;;2.97;;
26325;SDS011;14032;52.510;7.342;2023-06-10T14:30:08;6.18;;;2.97;;
26325;SDS011;14032;52.510;7.342;2023-06-10T14:32:34;7.22;;;3.30;;
26325;SDS011;14032;52.510;7.342;2023-06-10T14:35:00;9.93;;;3.28;;
26325;SDS011;14032;52.510;7.342;2023-06-10T14:37:26;4.80;;;3.05;;
26325;SDS011;14032;52.510;7.342;2023-06-10T14:39:52;8.80;;;3.33;;
26325;SDS011;14032;52.510;7.342;2023-06-10T14:42:17;9.43;;;3.47;;
26325;SDS011;14032;52.510;7.342;2023-06-10T14:44:44;5.28;;;3.25;;
26325;SDS011;14032;52.510;7.342;2023-06-10T14:47:10;6.97;;;3.40;;
26325;SDS011;14032;52.510;7.342;2023-06-10T14:49:35;4.70;;;3.05;;
26325;SDS011;14032;52.510;7.342;2023-06-10T14:52:01;5.53;;;3.05;;
26325;SDS011;14032;52.510;7.342;2023-06-10T14:54:27;4.20;;;3.22;;
26325;SDS011;14032;52.510;7.342;2023-06-10T14:56:52;5.05;;;3.03;;
26325;SDS011;14032;52.510;7.342;2023-06-10T14:59:18;5.07;;;3.30;;